Time;durP1;ratioP1;P1;durP2;ratioP2;P2;SDS_P1;SDS_P2;PMS_P1;PMS_P2;Temp;Humidity;BMP_temperature;BMP_pressure;BME280_temperature;BME280_humidity;BME280_pressure;Samples;Min_cycle;Max_cycle;Signal;HPM_P1;HPM_P2
2022/07/04 00:00:21;;;;;;;1.90;1.00;;;19.40;99.80;;;;;;5103511;28;20193;-82
2022/07/04 00:02:49;;;;;;;4.47;1.40;;;19.30;99.70;;;;;;5102318;28;20438;-81
2022/07/04 00:05:15;;;;;;;3.23;0.83;;;19.30;99.60;;;;;;5102456;28;20192;-80
2022/07/04 00:07:43;;;;;;;3.47;0.87;;;19.30;99.90;;;;;;5102796;28;20857;-80
2022/07/04 00:10:10;;;;;;;4.83;1.20;;;19.20;99.90;;;;;;5100197;28;20434;-82
2022/07/04 00:12:36;;;;;;;3.67;0.90;;;19.20;99.90;;;;;;5090417;28;20454;-81
2022/07/04 00:15:03;;;;;;;3.33;1.40;;;19.20;99.80;;;;;;5097527;28;20782;-79
2022/07/04 00:17:28;;;;;;;4.10;1.03;;;19.30;99.80;;;;;;5098981;28;20557;-81
2022/07/04 00:19:54;;;;;;;2.80;1.07;;;19.40;99.30;;;;;;5094487;28;20493;-80
2022/07/04 00:22:20;;;;;;;2.50;1.17;;;19.40;98.80;;;;;;5086327;28;20249;-80
2022/07/04 00:24:45;;;;;;;2.17;1.10;;;19.40;99.00;;;;;;5097078;28;20547;-81
2022/07/04 00:27:11;;;;;;;4.23;1.40;;;19.40;99.00;;;;;;5096883;28;20188;-80
2022/07/04 00:29:37;;;;;;;2.10;1.20;;;19.40;98.90;;;;;;5098028;28;20173;-82
2022/07/04 00:32:02;;;;;;;9.00;1.63;;;19.40;98.80;;;;;;5097739;28;20539;-81
2022/07/04 00:34:28;;;;;;;6.83;1.20;;;19.40;98.90;;;;;;5096864;28;20169;-80
2022/07/04 00:36:54;;;;;;;1.87;0.90;;;19.40;99.10;;;;;;5095255;28;20229;-81
2022/07/04 00:39:20;;;;;;;2.57;1.03;;;19.40;99.20;;;;;;5095591;28;20180;-81
2022/07/04 00:41:46;;;;;;;2.10;1.13;;;19.40;99.20;;;;;;5096585;28;20648;-81
2022/07/04 00:44:13;;;;;;;2.07;0.90;;;19.40;99.30;;;;;;5098251;28;20474;-83
2022/07/04 00:46:43;;;;;;;2.87;1.27;;;19.40;99.00;;;;;;5096903;28;20458;-80
2022/07/04 00:49:10;;;;;;;2.93;1.20;;;19.40;98.90;;;;;;5095552;28;20406;-80
2022/07/04 00:51:37;;;;;;;2.70;0.87;;;19.30;99.20;;;;;;5095373;28;20935;-81
2022/07/04 00:54:05;;;;;;;4.63;1.20;;;19.30;98.60;;;;;;5095765;28;20446;-80
2022/07/04 00:56:31;;;;;;;3.93;1.57;;;19.30;98.90;;;;;;5095927;28;20856;-81
2022/07/04 00:58:58;;;;;;;4.33;1.63;;;19.30;98.80;;;;;;5095757;28;20984;-79
2022/07/04 01:01:25;;;;;;;2.87;1.10;;;19.20;98.90;;;;;;5096890;28;20196;-79
2022/07/04 01:03:50;;;;;;;7.77;1.60;;;19.30;98.80;;;;;;5096689;28;20442;-81
2022/07/04 01:06:18;;;;;;;2.20;1.00;;;19.20;99.20;;;;;;5095455;28;20468;-80
2022/07/04 01:08:44;;;;;;;5.23;1.27;;;19.20;99.30;;;;;;5095899;28;20641;-81
2022/07/04 01:11:10;;;;;;;10.60;1.20;;;19.10;99.20;;;;;;5095635;28;20437;-80
2022/07/04 01:13:36;;;;;;;2.37;1.13;;;19.10;99.00;;;;;;5091108;28;20473;-80
2022/07/04 01:16:03;;;;;;;4.00;1.43;;;19.10;99.00;;;;;;5078399;28;20291;-80
2022/07/04 01:18:29;;;;;;;3.03;1.57;;;19.10;99.10;;;;;;5074930;28;20606;-81
2022/07/04 01:20:55;;;;;;;3.73;1.23;;;19.10;99.10;;;;;;5080021;28;20930;-81
2022/07/04 01:23:20;;;;;;;1.80;0.77;;;19.00;98.90;;;;;;5097144;28;20203;-76
2022/07/04 01:25:48;;;;;;;2.03;1.20;;;19.00;99.10;;;;;;5096290;28;20372;-81
2022/07/04 01:28:14;;;;;;;1.80;0.80;;;19.00;99.00;;;;;;5097165;28;20168;-81
2022/07/04 01:30:40;;;;;;;3.20;1.40;;;19.00;99.00;;;;;;5093243;28;20429;-81
2022/07/04 01:33:06;;;;;;;3.10;1.60;;;19.00;99.00;;;;;;5096017;28;20233;-81
2022/07/04 01:35:31;;;;;;;6.70;0.90;;;19.00;98.80;;;;;;5095825;28;20426;-81
2022/07/04 01:37:57;;;;;;;2.73;1.17;;;19.00;98.80;;;;;;5093903;28;20263;-81
2022/07/04 01:40:23;;;;;;;4.83;0.90;;;18.90;98.90;;;;;;5086766;28;20184;-78
2022/07/04 01:42:49;;;;;;;2.73;1.17;;;18.90;99.20;;;;;;5089990;28;20811;-78
2022/07/04 01:45:15;;;;;;;2.50;1.50;;;18.90;99.60;;;;;;5090327;28;20224;-81
2022/07/04 01:47:41;;;;;;;4.13;1.47;;;18.90;99.30;;;;;;5102987;28;20410;-81
2022/07/04 01:50:09;;;;;;;5.13;1.07;;;18.80;99.30;;;;;;5095048;28;20587;-81
2022/07/04 01:52:35;;;;;;;2.10;0.90;;;18.80;99.10;;;;;;5090068;28;20438;-80
2022/07/04 01:55:01;;;;;;;4.00;1.43;;;18.90;98.90;;;;;;5095234;28;20418;-80
2022/07/04 01:57:27;;;;;;;5.30;0.93;;;18.80;98.90;;;;;;5097426;28;20195;-79
2022/07/04 02:02:37;;;;;;;5.17;1.40;;;18.80;99.20;;;;;;5074108;28;20704;-80
2022/07/04 02:05:03;;;;;;;3.93;1.37;;;18.80;99.30;;;;;;5088914;28;20434;-81
2022/07/04 02:07:29;;;;;;;2.10;1.03;;;18.70;99.20;;;;;;5094246;28;20911;-80
2022/07/04 02:09:55;;;;;;;2.87;1.33;;;18.70;99.20;;;;;;5094492;28;20440;-81
2022/07/04 02:15:05;;;;;;;6.20;1.17;;;18.70;99.40;;;;;;5091714;28;20227;-81
2022/07/04 02:17:30;;;;;;;2.43;1.17;;;18.60;99.30;;;;;;5095602;28;20923;-80
2022/07/04 02:19:56;;;;;;;2.37;1.13;;;18.60;99.70;;;;;;5097027;28;20425;-80
2022/07/04 02:22:22;;;;;;;4.03;1.50;;;18.50;99.80;;;;;;5095239;28;20200;-83
2022/07/04 02:24:47;;;;;;;2.90;1.30;;;18.50;99.80;;;;;;5095371;28;20182;-83
2022/07/04 02:27:13;;;;;;;4.83;1.60;;;18.50;99.60;;;;;;5093602;28;20268;-80
2022/07/04 02:29:40;;;;;;;1.70;0.90;;;18.50;99.60;;;;;;5096264;28;20192;-81
2022/07/04 02:32:05;;;;;;;2.70;1.03;;;18.40;99.90;;;;;;5083295;28;20173;-80
2022/07/04 02:34:31;;;;;;;5.93;2.37;;;18.30;99.90;;;;;;5080156;28;20937;-82
2022/07/04 02:36:57;;;;;;;8.97;1.40;;;18.30;99.90;;;;;;5094774;28;20192;-80
2022/07/04 02:39:22;;;;;;;4.20;1.23;;;18.30;99.90;;;;;;5082933;28;20188;-82
2022/07/04 02:41:48;;;;;;;1.90;1.00;;;18.30;99.90;;;;;;5097096;28;20649;-79
2022/07/04 02:44:14;;;;;;;2.80;1.23;;;18.20;99.90;;;;;;5097306;28;20176;-80
2022/07/04 02:46:39;;;;;;;3.13;1.77;;;18.20;99.90;;;;;;5096882;28;20196;-80
2022/07/04 02:49:05;;;;;;;4.73;1.10;;;18.20;99.90;;;;;;5097037;28;20184;-77
2022/07/04 02:51:31;;;;;;;2.30;1.37;;;18.20;99.90;;;;;;5080952;28;20681;-82
2022/07/04 02:53:57;;;;;;;5.30;1.27;;;18.10;99.90;;;;;;5094619;28;20196;-80
2022/07/04 02:56:23;;;;;;;3.50;1.00;;;18.10;99.90;;;;;;5097128;28;20422;-80
2022/07/04 02:58:48;;;;;;;2.20;1.20;;;18.10;99.90;;;;;;5096510;28;20410;-77
2022/07/04 03:01:14;;;;;;;3.60;1.50;;;18.10;99.90;;;;;;5083049;28;20215;-81
2022/07/04 03:03:41;;;;;;;3.67;1.33;;;18.10;99.90;;;;;;5095864;28;20562;-80
2022/07/04 03:06:10;;;;;;;2.00;1.03;;;18.00;99.90;;;;;;5096965;28;20454;-82
2022/07/04 03:08:36;;;;;;;2.13;1.00;;;17.90;99.90;;;;;;5095955;28;20406;-81
2022/07/04 03:11:03;;;;;;;8.60;1.70;;;17.90;99.90;;;;;;5082822;28;20435;-82
2022/07/04 03:13:28;;;;;;;4.33;1.50;;;17.90;99.90;;;;;;5090565;28;20434;-82
2022/07/04 03:15:54;;;;;;;4.40;1.40;;;17.90;99.90;;;;;;5090346;28;20441;-83
2022/07/04 03:18:20;;;;;;;2.73;1.37;;;17.80;99.90;;;;;;5093948;28;20263;-81
2022/07/04 03:20:46;;;;;;;5.33;1.17;;;17.80;99.90;;;;;;5093155;28;20194;-80
2022/07/04 03:23:12;;;;;;;3.70;1.40;;;17.80;99.90;;;;;;5093800;28;20446;-79
2022/07/04 03:25:37;;;;;;;3.00;0.93;;;17.80;99.90;;;;;;5094081;28;20454;-81
2022/07/04 03:28:04;;;;;;;2.53;1.27;;;17.80;99.90;;;;;;5092959;28;20180;-81
2022/07/04 03:30:30;;;;;;;4.63;1.57;;;17.70;99.90;;;;;;5092116;28;20188;-82
2022/07/04 03:32:55;;;;;;;2.47;1.30;;;17.70;99.90;;;;;;5093718;28;20487;-80
2022/07/04 03:35:21;;;;;;;2.20;1.20;;;17.60;99.90;;;;;;5094770;28;20506;-79
2022/07/04 03:37:47;;;;;;;6.80;1.60;;;17.60;99.90;;;;;;5088915;28;20191;-80
2022/07/04 03:40:12;;;;;;;3.70;1.80;;;17.50;99.90;;;;;;5087280;28;20184;-79
2022/07/04 03:42:38;;;;;;;2.67;1.83;;;17.40;99.90;;;;;;5095219;28;20200;-80
2022/07/04 03:45:05;;;;;;;2.13;1.17;;;17.40;99.90;;;;;;5096973;28;20185;-81
2022/07/04 03:47:31;;;;;;;4.90;1.80;;;17.40;99.90;;;;;;5079437;28;20889;-80
2022/07/04 03:49:57;;;;;;;4.07;1.37;;;17.40;99.90;;;;;;5095981;28;20445;-79
2022/07/04 03:52:23;;;;;;;2.87;1.10;;;17.50;99.90;;;;;;5094462;28;20242;-82
2022/07/04 03:54:49;;;;;;;2.60;1.17;;;17.50;99.90;;;;;;5096037;28;20411;-80
2022/07/04 03:57:15;;;;;;;3.00;1.30;;;17.50;99.90;;;;;;5089547;28;20233;-80
2022/07/04 03:59:40;;;;;;;5.00;0.90;;;17.50;99.90;;;;;;5101111;28;20221;-81
2022/07/04 04:02:06;;;;;;;2.30;1.10;;;17.60;99.90;;;;;;5099635;28;20206;-82
2022/07/04 04:07:16;;;;;;;5.83;1.27;;;17.60;99.90;;;;;;5086781;28;20330;-80
2022/07/04 04:09:41;;;;;;;3.80;1.50;;;17.60;99.90;;;;;;5100638;28;20468;-81
2022/07/04 04:12:07;;;;;;;2.00;1.20;;;17.50;99.90;;;;;;5097794;28;20200;-80
2022/07/04 04:14:33;;;;;;;3.00;1.17;;;17.50;99.90;;;;;;5098348;28;20200;-82
2022/07/04 04:16:58;;;;;;;6.70;1.77;;;17.50;99.90;;;;;;5098687;28;20184;-81
2022/07/04 04:19:24;;;;;;;3.77;1.30;;;17.50;99.90;;;;;;5090505;28;20189;-80
2022/07/04 04:21:49;;;;;;;4.93;1.80;;;17.40;99.90;;;;;;5090869;28;20189;-81
2022/07/04 04:24:15;;;;;;;2.77;1.77;;;17.40;99.90;;;;;;5099820;28;20281;-82
2022/07/04 04:26:41;;;;;;;2.77;1.23;;;17.30;99.90;;;;;;5097104;28;20688;-81
2022/07/04 04:29:06;;;;;;;2.33;1.17;;;17.20;99.90;;;;;;5097752;28;20183;-81
2022/07/04 04:31:32;;;;;;;3.60;1.50;;;17.30;99.90;;;;;;5084581;28;20545;-81
2022/07/04 04:33:58;;;;;;;7.30;1.57;;;17.30;99.90;;;;;;5078694;28;20228;-81
2022/07/04 04:36:24;;;;;;;3.03;1.20;;;17.30;99.90;;;;;;5097183;28;20263;-83
2022/07/04 04:38:49;;;;;;;3.70;1.47;;;17.40;99.90;;;;;;5080583;28;20181;-80
2022/07/04 04:41:16;;;;;;;2.60;1.30;;;17.40;99.90;;;;;;5097006;28;20176;-79
2022/07/04 04:43:42;;;;;;;2.20;1.40;;;17.40;99.90;;;;;;5097824;28;20234;-82
2022/07/04 04:46:08;;;;;;;6.53;1.50;;;17.50;99.90;;;;;;5079539;28;20458;-80
2022/07/04 04:48:34;;;;;;;4.47;1.37;;;17.50;99.90;;;;;;5079168;28;20183;-80
2022/07/04 04:50:59;;;;;;;4.30;1.63;;;17.50;99.90;;;;;;5096866;28;20411;-79
2022/07/04 04:53:25;;;;;;;4.77;1.67;;;17.60;99.90;;;;;;5082604;28;20610;-80
2022/07/04 04:55:54;;;;;;;2.27;1.43;;;17.60;99.90;;;;;;5091268;28;20252;-81
2022/07/04 04:58:21;;;;;;;3.80;1.50;;;17.60;99.90;;;;;;5093308;28;20180;-80
2022/07/04 05:00:49;;;;;;;3.90;1.60;;;17.60;99.90;;;;;;5088627;28;20788;-83
2022/07/04 05:03:15;;;;;;;2.03;0.80;;;17.70;99.90;;;;;;5079500;28;20454;-82
2022/07/04 05:05:41;;;;;;;3.60;1.17;;;17.70;99.90;;;;;;5092163;28;20459;-82
2022/07/04 05:08:07;;;;;;;6.80;1.50;;;17.70;99.90;;;;;;5090566;28;20437;-81
2022/07/04 05:10:32;;;;;;;2.10;1.23;;;17.70;99.90;;;;;;5083086;28;20498;-80
2022/07/04 05:12:58;;;;;;;5.50;1.50;;;17.70;99.90;;;;;;5077316;28;20193;-80
2022/07/04 05:15:23;;;;;;;2.77;1.43;;;17.70;99.90;;;;;;5087138;28;20593;-81
2022/07/04 05:17:50;;;;;;;2.50;1.17;;;17.70;99.90;;;;;;5084563;28;20261;-81
2022/07/04 05:20:15;;;;;;;3.50;1.20;;;17.70;99.90;;;;;;5087654;28;20180;-82
2022/07/04 05:22:41;;;;;;;4.77;1.47;;;17.70;99.90;;;;;;5092380;28;20461;-79
2022/07/04 05:25:07;;;;;;;5.27;1.90;;;17.70;99.90;;;;;;5098078;28;20180;-81
2022/07/04 05:27:33;;;;;;;7.87;1.47;;;17.80;99.90;;;;;;5095251;28;20296;-80
2022/07/04 05:29:59;;;;;;;3.67;1.10;;;17.80;99.90;;;;;;5097774;28;20188;-79
2022/07/04 05:32:26;;;;;;;3.13;1.13;;;17.90;99.90;;;;;;5093878;28;20442;-80
2022/07/04 05:34:51;;;;;;;2.80;1.10;;;17.90;99.90;;;;;;5097941;28;20668;-80
2022/07/04 05:37:17;;;;;;;3.50;1.37;;;18.00;99.90;;;;;;5097400;28;20420;-82
2022/07/04 05:39:43;;;;;;;3.63;1.30;;;18.00;99.90;;;;;;5087499;28;20272;-80
2022/07/04 05:42:08;;;;;;;1.90;1.00;;;18.00;99.90;;;;;;5081656;28;20207;-81
2022/07/04 05:44:34;;;;;;;2.70;1.57;;;18.10;99.90;;;;;;5088685;28;20610;-80
2022/07/04 05:47:00;;;;;;;2.50;1.20;;;18.10;99.90;;;;;;5091337;28;20235;-79
2022/07/04 05:49:25;;;;;;;2.50;1.30;;;18.10;99.90;;;;;;5101902;28;20176;-77
2022/07/04 05:51:51;;;;;;;2.53;1.53;;;18.20;99.90;;;;;;5111056;28;20184;-85
2022/07/04 05:54:17;;;;;;;5.20;1.90;;;18.20;99.90;;;;;;5108947;28;20250;-86
2022/07/04 05:56:43;;;;;;;3.53;1.40;;;18.30;99.90;;;;;;5127277;22;20220;-77
2022/07/04 05:59:09;;;;;;;3.30;1.17;;;18.30;99.90;;;;;;5094402;28;20426;-78
2022/07/04 06:01:36;;;;;;;3.10;1.27;;;18.30;99.90;;;;;;5088449;28;20196;-77
2022/07/04 06:04:03;;;;;;;2.23;1.20;;;18.40;99.90;;;;;;5091873;28;20492;-78
2022/07/04 06:06:29;;;;;;;4.03;1.30;;;18.40;99.90;;;;;;5093973;28;20552;-77
2022/07/04 06:08:55;;;;;;;2.90;1.63;;;18.40;99.40;;;;;;5090134;28;20434;-77
2022/07/04 06:11:21;;;;;;;2.87;1.00;;;18.50;99.70;;;;;;5088232;28;20446;-77
2022/07/04 06:13:48;;;;;;;6.90;1.30;;;18.50;99.50;;;;;;5091828;28;20435;-78
2022/07/04 06:16:15;;;;;;;4.90;1.63;;;18.60;99.20;;;;;;5093524;28;20192;-78
2022/07/04 06:18:41;;;;;;;1.87;1.10;;;18.50;99.30;;;;;;5102151;28;20491;-77
2022/07/04 06:21:06;;;;;;;3.63;1.43;;;18.50;99.20;;;;;;5098852;28;20414;-78
2022/07/04 06:23:32;;;;;;;4.03;1.73;;;18.50;99.00;;;;;;5087141;28;20912;-77
2022/07/04 06:25:58;;;;;;;1.90;1.23;;;18.50;99.00;;;;;;5108757;28;20514;-77
2022/07/04 06:28:24;;;;;;;2.40;1.23;;;18.60;99.00;;;;;;5109427;28;20165;-77
2022/07/04 06:30:49;;;;;;;6.97;1.23;;;18.70;99.00;;;;;;5118328;28;20195;-77
2022/07/04 06:33:15;;;;;;;5.57;1.40;;;18.70;98.70;;;;;;5111677;28;20173;-77
2022/07/04 06:35:56;;;;;;;5.23;1.27;;;18.80;98.60;;;;;;5112291;28;20207;-77
2022/07/04 06:38:27;;;;;;;2.33;1.17;;;18.90;98.40;;;;;;5135736;28;20164;-77
2022/07/04 06:40:59;;;;;;;5.00;1.40;;;19.00;98.20;;;;;;5121833;28;20432;-77
2022/07/04 06:43:26;;;;;;;2.53;1.10;;;19.10;97.50;;;;;;5117615;28;20419;-77
2022/07/04 06:45:52;;;;;;;5.40;1.30;;;19.20;97.80;;;;;;5117910;28;20494;-77
2022/07/04 06:48:19;;;;;;;4.93;1.53;;;19.30;97.30;;;;;;5108180;28;20415;-78
2022/07/04 06:50:45;;;;;;;2.97;1.50;;;19.30;98.00;;;;;;5115759;28;20411;-77
2022/07/04 06:53:11;;;;;;;3.00;1.30;;;19.40;97.80;;;;;;5099668;28;20402;-77
2022/07/04 06:55:38;;;;;;;3.63;1.30;;;19.50;97.40;;;;;;5104014;28;20414;-77
2022/07/04 06:58:04;;;;;;;3.47;1.30;;;19.60;97.30;;;;;;5099936;28;20446;-77
2022/07/04 07:00:30;;;;;;;2.23;1.37;;;19.60;97.30;;;;;;5092877;28;20426;-77
2022/07/04 07:02:58;;;;;;;6.97;1.50;;;19.60;97.90;;;;;;5097176;28;20892;-78
2022/07/04 07:05:24;;;;;;;2.07;1.10;;;19.60;97.60;;;;;;5095154;28;20206;-78
2022/07/04 07:07:50;;;;;;;4.93;1.53;;;19.80;97.60;;;;;;5105198;28;20906;-77
2022/07/04 07:10:16;;;;;;;2.77;1.17;;;19.80;97.40;;;;;;5100211;28;20418;-77
2022/07/04 07:12:42;;;;;;;3.23;1.30;;;19.90;97.80;;;;;;5093866;28;20185;-77
2022/07/04 07:15:08;;;;;;;2.83;1.40;;;20.10;97.40;;;;;;5079313;28;20626;-77
2022/07/04 07:17:34;;;;;;;5.90;1.87;;;20.20;97.70;;;;;;5087701;28;20560;-77
2022/07/04 07:20:00;;;;;;;3.40;1.37;;;20.40;97.20;;;;;;5097144;28;20880;-77
2022/07/04 07:22:25;;;;;;;3.80;1.27;;;20.50;97.50;;;;;;5093395;28;20185;-78
2022/07/04 07:24:51;;;;;;;3.47;1.43;;;20.60;96.60;;;;;;5090976;28;20180;-78
2022/07/04 07:27:17;;;;;;;2.70;1.40;;;20.80;96.10;;;;;;5091196;28;20200;-78
2022/07/04 07:29:43;;;;;;;2.97;0.83;;;20.90;96.70;;;;;;5095663;28;20184;-80
2022/07/04 07:32:08;;;;;;;2.97;1.00;;;20.90;96.20;;;;;;5094052;28;20180;-78
2022/07/04 07:34:34;;;;;;;4.07;1.60;;;20.90;96.20;;;;;;5104621;28;20192;-78
2022/07/04 07:37:00;;;;;;;6.50;1.90;;;20.80;96.20;;;;;;5105228;28;20183;-78
2022/07/04 07:39:26;;;;;;;2.80;1.53;;;20.90;96.20;;;;;;5095136;28;20823;-78
2022/07/04 07:41:51;;;;;;;2.60;1.10;;;20.90;96.50;;;;;;5085032;28;20666;-78
2022/07/04 07:44:17;;;;;;;2.13;1.13;;;21.20;95.00;;;;;;5098213;28;20654;-78
2022/07/04 07:46:43;;;;;;;2.60;1.43;;;21.20;96.00;;;;;;5111359;28;20203;-78
2022/07/04 07:49:08;;;;;;;5.10;1.37;;;21.20;95.50;;;;;;5100296;28;20188;-78
2022/07/04 07:51:34;;;;;;;2.07;0.97;;;21.40;96.00;;;;;;5091093;28;20268;-79
2022/07/04 07:54:00;;;;;;;4.97;1.53;;;21.50;95.60;;;;;;5095269;28;20196;-78
2022/07/04 07:56:26;;;;;;;2.27;1.20;;;21.80;95.70;;;;;;5095708;28;20188;-78
2022/07/04 07:58:52;;;;;;;2.53;1.00;;;22.00;94.30;;;;;;5094837;28;20433;-78
2022/07/04 08:01:18;;;;;;;3.17;1.23;;;21.90;93.90;;;;;;5092873;28;20268;-78
2022/07/04 08:06:28;;;;;;;2.63;1.17;;;21.70;94.10;;;;;;5098905;28;20690;-78
2022/07/04 08:08:54;;;;;;;3.73;1.10;;;21.80;94.40;;;;;;5096028;28;20513;-78
2022/07/04 08:11:20;;;;;;;3.77;1.47;;;21.80;94.90;;;;;;5101950;28;20652;-78
2022/07/04 08:13:45;;;;;;;2.10;1.27;;;21.90;94.30;;;;;;5097999;28;20264;-79
2022/07/04 08:16:11;;;;;;;3.67;1.17;;;21.90;94.00;;;;;;5093119;28;20184;-79
2022/07/04 08:18:38;;;;;;;3.50;1.60;;;21.90;94.20;;;;;;5095234;28;20712;-77
2022/07/04 08:21:04;;;;;;;3.10;1.63;;;21.90;94.00;;;;;;5103875;28;20180;-78
2022/07/04 08:23:31;;;;;;;2.27;1.20;;;21.60;94.80;;;;;;5096060;28;20460;-78
2022/07/04 08:25:57;;;;;;;5.90;1.40;;;21.50;95.00;;;;;;5098597;28;20462;-78
2022/07/04 08:28:23;;;;;;;9.50;1.70;;;21.40;95.40;;;;;;5111619;28;20409;-78
2022/07/04 08:30:48;;;;;;;4.03;1.50;;;21.40;95.00;;;;;;5102857;28;20808;-78
2022/07/04 08:33:14;;;;;;;3.50;1.50;;;21.30;95.20;;;;;;5099475;28;20185;-78
2022/07/04 08:35:40;;;;;;;2.93;1.40;;;21.20;95.70;;;;;;5103056;28;20201;-78
2022/07/04 08:38:05;;;;;;;6.63;1.00;;;21.30;95.40;;;;;;5088078;28;20188;-78
2022/07/04 08:40:31;;;;;;;3.53;1.23;;;21.30;95.30;;;;;;5088065;28;20219;-78
2022/07/04 08:42:57;;;;;;;1.60;1.00;;;21.30;95.90;;;;;;5090441;28;20200;-79
2022/07/04 08:45:28;;;;;;;1.97;0.97;;;21.40;95.80;;;;;;5092543;28;20185;-78
2022/07/04 08:48:03;;;;;;;2.27;1.13;;;21.50;95.10;;;;;;5095467;28;20505;-78
2022/07/04 08:50:53;;;;;;;6.30;2.10;;;21.60;94.90;;;;;;5102490;28;20444;-78
2022/07/04 08:53:20;;;;;;;8.63;1.47;;;21.60;95.20;;;;;;5094035;28;20521;-79
2022/07/04 08:58:33;;;;;;;2.20;1.40;;;21.90;95.00;;;;;;5096460;28;20440;-77
2022/07/04 09:01:14;;;;;;;3.80;1.87;;;22.00;94.30;;;;;;5094408;28;21100;-78
2022/07/04 09:03:45;;;;;;;2.57;1.00;;;22.40;94.10;;;;;;5103607;28;20421;-78
2022/07/04 09:06:13;;;;;;;4.30;1.60;;;22.70;93.90;;;;;;5094895;28;20930;-78
2022/07/04 09:08:40;;;;;;;4.87;1.20;;;23.00;93.00;;;;;;5096803;28;20406;-78
2022/07/04 09:11:07;;;;;;;3.93;1.50;;;23.20;92.90;;;;;;5106182;28;20422;-77
2022/07/04 09:13:33;;;;;;;9.90;2.00;;;23.40;92.70;;;;;;5120545;28;20443;-78
2022/07/04 09:16:00;;;;;;;2.73;1.50;;;23.80;91.90;;;;;;5119425;28;20410;-79
2022/07/04 09:18:28;;;;;;;2.27;1.30;;;24.00;92.00;;;;;;5114997;28;20422;-78
2022/07/04 09:20:55;;;;;;;3.93;1.27;;;24.60;90.90;;;;;;5099382;28;20434;-79
2022/07/04 09:23:23;;;;;;;2.00;1.07;;;25.00;89.70;;;;;;5092853;28;20511;-78
2022/07/04 09:26:11;;;;;;;8.40;1.47;;;25.40;89.30;;;;;;5092195;28;20211;-78
2022/07/04 09:28:38;;;;;;;3.03;1.40;;;25.80;88.70;;;;;;5082639;28;20306;-79
2022/07/04 09:31:22;;;;;;;2.30;1.10;;;26.20;86.00;;;;;;5090287;28;20168;-77
2022/07/04 09:33:49;;;;;;;3.30;1.33;;;26.20;84.30;;;;;;5090803;28;20179;-78
2022/07/04 09:36:17;;;;;;;2.75;1.08;;;26.60;84.50;;;;;;5089061;28;20180;-78
2022/07/04 09:38:43;;;;;;;6.20;1.65;;;27.30;81.50;;;;;;5091255;28;20178;-78
2022/07/04 09:44:05;;;;;;;4.28;1.73;;;27.40;81.20;;;;;;5078064;28;20533;-77
2022/07/04 09:46:32;;;;;;;2.30;1.20;;;27.30;80.50;;;;;;5076875;28;20199;-78
2022/07/04 09:48:58;;;;;;;2.47;1.20;;;26.90;80.40;;;;;;5080369;28;20175;-77
2022/07/04 09:52:00;;;;;;;4.82;1.40;;;26.20;82.70;;;;;;5079075;28;20571;-78
2022/07/04 09:54:34;;;;;;;5.07;1.35;;;25.90;86.60;;;;;;5009293;28;20189;-77
2022/07/04 09:57:02;;;;;;;2.83;1.33;;;26.20;85.00;;;;;;5076012;28;20195;-78
2022/07/04 09:59:29;;;;;;;3.45;1.42;;;26.70;82.00;;;;;;5091496;28;20211;-78
2022/07/04 10:02:13;;;;;;;1.77;1.00;;;27.00;80.80;;;;;;5086794;28;20258;-77
2022/07/04 10:04:51;;;;;;;2.85;1.55;;;26.50;80.40;;;;;;5085310;28;20214;-78
2022/07/04 10:07:35;;;;;;;2.72;1.10;;;26.40;81.40;;;;;;5078935;28;20235;-77
2022/07/04 10:10:20;;;;;;;11.27;1.23;;;26.50;80.70;;;;;;5091316;28;20213;-78
2022/07/04 10:12:49;;;;;;;2.95;1.10;;;26.50;80.00;;;;;;5087203;28;20255;-78
2022/07/04 10:15:37;;;;;;;1.88;1.00;;;26.60;84.60;;;;;;5081765;28;20181;-79
2022/07/04 10:18:03;;;;;;;2.20;1.20;;;27.10;79.90;;;;;;5084590;28;20181;-79
2022/07/04 10:20:29;;;;;;;3.67;1.38;;;27.30;78.70;;;;;;5092450;28;20182;-79
2022/07/04 10:22:56;;;;;;;4.13;1.55;;;27.20;78.50;;;;;;5083103;28;20200;-78
2022/07/04 10:25:22;;;;;;;2.30;1.38;;;27.20;77.50;;;;;;5090526;28;20183;-78
2022/07/04 10:27:50;;;;;;;2.17;1.20;;;27.10;80.10;;;;;;5084075;28;20615;-78
2022/07/04 10:30:21;;;;;;;2.78;1.30;;;27.20;76.50;;;;;;5088798;28;20221;-78
2022/07/04 10:32:48;;;;;;;2.70;1.00;;;26.70;78.00;;;;;;5090763;28;20188;-79
2022/07/04 10:35:15;;;;;;;6.20;1.77;;;26.60;79.30;;;;;;5089380;28;20618;-78
2022/07/04 10:38:20;;;;;;;6.93;1.27;;;26.80;77.90;;;;;;5088254;28;20191;-77
2022/07/04 10:40:50;;;;;;;2.67;1.37;;;26.10;80.40;;;;;;5009819;28;20218;-77
2022/07/04 10:43:25;;;;;;;10.00;1.83;;;25.50;81.60;;;;;;5073932;28;20187;-78
2022/07/04 10:45:54;;;;;;;5.10;1.30;;;25.80;85.60;;;;;;5086019;28;20266;-78
2022/07/04 10:48:21;;;;;;;2.90;1.27;;;25.70;81.60;;;;;;5097240;28;20172;-78
2022/07/04 10:51:06;;;;;;;5.70;1.33;;;25.80;80.90;;;;;;5095292;28;20805;-78
2022/07/04 10:53:32;;;;;;;2.00;1.00;;;25.60;80.30;;;;;;5090920;28;20175;-78
2022/07/04 10:56:37;;;;;;;3.27;1.37;;;25.60;81.50;;;;;;5092691;28;20233;-78
2022/07/04 10:59:27;;;;;;;4.10;1.30;;;25.60;82.30;;;;;;5052010;28;20200;-78
2022/07/04 11:02:11;;;;;;;2.50;1.10;;;25.30;83.30;;;;;;5092851;28;20420;-78
2022/07/04 11:04:56;;;;;;;5.23;2.00;;;25.50;84.40;;;;;;5091897;28;20428;-77
2022/07/04 11:07:37;;;;;;;3.40;1.20;;;25.80;81.00;;;;;;5094651;28;20459;-76
2022/07/04 11:10:21;;;;;;;3.00;1.93;;;25.60;82.60;;;;;;5094700;28;20413;-78
2022/07/04 11:12:53;;;;;;;2.80;1.33;;;25.30;83.60;;;;;;5076037;28;20427;-78
2022/07/04 11:15:28;;;;;;;4.43;1.63;;;25.50;84.80;;;;;;5086248;28;20463;-79
2022/07/04 11:18:05;;;;;;;2.83;1.20;;;25.60;82.80;;;;;;5082212;28;20466;-76
2022/07/04 11:20:34;;;;;;;2.50;1.17;;;25.70;81.30;;;;;;5097578;28;20454;-78
2022/07/04 11:23:12;;;;;;;2.57;1.10;;;25.70;81.20;;;;;;5086705;28;20406;-78
2022/07/04 11:25:40;;;;;;;2.27;1.10;;;25.80;85.90;;;;;;5081779;28;20488;-78
2022/07/04 11:28:28;;;;;;;2.67;1.10;;;25.80;84.70;;;;;;5085695;28;20501;-78
2022/07/04 11:31:00;;;;;;;2.10;1.10;;;25.90;83.70;;;;;;5088555;28;20421;-77
2022/07/04 11:33:29;;;;;;;2.20;1.30;;;26.10;82.60;;;;;;5085865;28;20506;-77
2022/07/04 11:36:06;;;;;;;3.43;1.10;;;26.10;84.20;;;;;;5085138;28;20422;-78
2022/07/04 11:38:53;;;;;;;2.20;1.20;;;26.20;78.30;;;;;;5093537;28;20417;-79
2022/07/04 11:47:01;;;;;;;2.20;1.10;;;26.30;75.40;;;;;;5090796;28;20463;-76
2022/07/04 11:49:26;;;;;;;2.90;1.13;;;26.20;79.40;;;;;;5097344;28;20411;-77
2022/07/04 11:51:55;;;;;;;3.43;1.27;;;26.50;78.00;;;;;;5081687;28;20416;-76
2022/07/04 11:54:21;;;;;;;2.00;1.07;;;26.60;76.90;;;;;;5082921;28;20180;-78
2022/07/04 11:56:46;;;;;;;8.70;1.20;;;26.70;76.30;;;;;;5087054;28;20426;-77
2022/07/04 11:59:17;;;;;;;5.77;1.20;;;26.80;77.20;;;;;;5092226;28;20240;-77
2022/07/04 12:01:44;;;;;;;2.40;1.00;;;26.80;79.40;;;;;;5078961;28;20539;-78
2022/07/04 12:04:20;;;;;;;2.30;1.27;;;26.80;80.90;;;;;;5075559;28;20293;-78
2022/07/04 12:06:47;;;;;;;2.10;1.10;;;26.80;81.90;;;;;;5083425;28;20250;-78
2022/07/04 12:09:18;;;;;;;2.73;1.37;;;27.10;80.90;;;;;;5084126;28;20181;-77
2022/07/04 12:11:59;;;;;;;6.30;1.00;;;27.50;76.50;;;;;;5089126;28;20180;-78
2022/07/04 12:14:26;;;;;;;6.10;1.30;;;27.70;74.70;;;;;;5072924;28;20177;-77
2022/07/04 12:17:15;;;;;;;3.73;1.47;;;27.40;74.50;;;;;;5077070;28;20192;-78
2022/07/04 12:19:55;;;;;;;3.30;1.40;;;26.90;76.40;;;;;;5091236;28;20408;-77
2022/07/04 12:22:24;;;;;;;2.10;1.20;;;26.50;77.70;;;;;;5084552;28;20427;-77
2022/07/04 12:24:50;;;;;;;6.10;1.63;;;26.20;78.90;;;;;;5086262;28;20180;-77
2022/07/04 12:27:20;;;;;;;2.40;1.20;;;26.10;78.30;;;;;;5088136;28;20567;-77
2022/07/04 12:29:50;;;;;;;4.23;1.70;;;25.90;78.60;;;;;;5090465;28;20176;-77
2022/07/04 12:32:16;;;;;;;2.03;0.90;;;25.50;80.30;;;;;;5086550;28;20556;-77
2022/07/04 12:34:42;;;;;;;2.90;1.40;;;25.30;80.80;;;;;;5091124;28;20418;-77
2022/07/04 12:37:10;;;;;;;7.40;1.30;;;25.30;84.30;;;;;;5089898;28;20432;-77
2022/07/04 12:39:39;;;;;;;2.00;1.20;;;25.30;82.00;;;;;;5101582;28;20515;-77
2022/07/04 12:42:09;;;;;;;5.13;1.47;;;25.50;80.00;;;;;;5103765;28;21077;-77
2022/07/04 12:44:36;;;;;;;12.53;1.70;;;25.80;77.10;;;;;;5074507;28;20422;-77
2022/07/04 12:47:04;;;;;;;2.10;1.17;;;25.70;81.30;;;;;;5076767;28;20495;-77
2022/07/04 12:49:30;;;;;;;3.20;1.60;;;25.80;80.40;;;;;;5074440;28;20407;-78
2022/07/04 12:52:15;;;;;;;2.80;1.23;;;26.00;79.10;;;;;;5082419;28;20442;-77
2022/07/04 12:54:41;;;;;;;3.37;1.33;;;26.40;80.40;;;;;;5085713;28;20426;-77
2022/07/04 12:57:12;;;;;;;5.00;1.30;;;26.90;77.20;;;;;;5086566;28;20442;-77
2022/07/04 12:59:39;;;;;;;2.03;0.87;;;27.00;76.90;;;;;;5087532;28;20509;-77
2022/07/04 13:02:06;;;;;;;2.60;1.13;;;27.30;77.10;;;;;;5079429;28;20186;-77
2022/07/04 13:04:32;;;;;;;2.73;1.27;;;27.40;73.10;;;;;;5099699;28;20179;-77
2022/07/04 13:06:59;;;;;;;2.83;1.30;;;27.50;71.80;;;;;;5094231;28;20611;-77
2022/07/04 13:09:26;;;;;;;2.20;1.07;;;27.30;73.40;;;;;;5096985;28;20198;-78
2022/07/04 13:14:36;;;;;;;5.77;1.17;;;27.50;77.50;;;;;;5094338;28;20598;-77